createdAt,value
2022-09-06T00:03:16.686Z,2.10
2022-09-06T00:08:19.590Z,2.10
2022-09-06T00:13:22.509Z,2.20
2022-09-06T00:18:25.409Z,2.30
2022-09-06T00:23:28.151Z,2.30
2022-09-06T00:28:31.169Z,1.90
2022-09-06T00:33:34.125Z,2.10
2022-09-06T00:38:37.792Z,2.00
2022-09-06T00:43:41.380Z,2.60
2022-09-06T00:48:47.263Z,2.10
2022-09-06T00:53:52.104Z,2.00
2022-09-06T00:58:55.200Z,2.40
2022-09-06T01:03:58.320Z,2.30
2022-09-06T01:09:13.340Z,2.20
2022-09-06T01:14:28.925Z,2.40
2022-09-06T01:19:59.455Z,2.60
2022-09-06T01:25:28.449Z,2.50
2022-09-06T01:30:38.498Z,2.70
2022-09-06T01:35:48.109Z,2.60
2022-09-06T01:40:51.221Z,2.20
2022-09-06T01:45:57.031Z,2.70
2022-09-06T01:51:58.634Z,2.60
2022-09-06T01:57:39.820Z,2.70
2022-09-06T02:03:01.557Z,2.60
2022-09-06T02:08:29.597Z,2.30
2022-09-06T02:13:39.976Z,3.10
2022-09-06T02:18:48.035Z,3.00
2022-09-06T02:23:53.251Z,2.80
2022-09-06T02:28:57.074Z,2.70
2022-09-06T02:34:02.167Z,3.20
2022-09-06T02:39:05.675Z,3.00
2022-09-06T02:44:08.596Z,2.60
2022-09-06T02:49:11.452Z,2.90
2022-09-06T02:54:14.205Z,3.70
2022-09-06T02:59:17.307Z,3.10
2022-09-06T03:04:20.349Z,3.30
2022-09-06T03:09:23.264Z,3.70
2022-09-06T03:14:26.056Z,3.30
2022-09-06T03:19:28.936Z,3.10
2022-09-06T03:24:31.721Z,3.20
2022-09-06T03:29:34.757Z,2.80
2022-09-06T03:34:37.601Z,3.30
2022-09-06T03:39:40.963Z,3.10
2022-09-06T03:44:43.889Z,3.40
2022-09-06T03:49:48.363Z,3.50
2022-09-06T03:54:51.430Z,3.50
2022-09-06T03:59:54.196Z,3.40
2022-09-06T04:04:57.152Z,6.70
2022-09-06T04:10:00.093Z,6.90
2022-09-06T04:15:03.441Z,5.60
2022-09-06T04:20:07.342Z,4.50
2022-09-06T04:25:11.087Z,3.30
2022-09-06T04:30:14.166Z,4.00
2022-09-06T04:35:17.257Z,3.40
2022-09-06T04:40:20.472Z,4.10
2022-09-06T04:45:23.516Z,3.40
2022-09-06T04:50:26.696Z,3.50
2022-09-06T04:55:31.412Z,3.60
2022-09-06T05:00:35.903Z,3.20
2022-09-06T05:05:38.802Z,3.20
2022-09-06T05:10:41.710Z,3.20
2022-09-06T05:15:44.708Z,3.40
2022-09-06T05:20:54.699Z,2.80
2022-09-06T05:25:57.691Z,2.70
2022-09-06T05:31:24.063Z,3.20
2022-09-06T05:41:32.620Z,3.00
2022-09-06T05:46:42.325Z,3.10
2022-09-06T05:51:51.644Z,2.30
2022-09-06T05:57:16.025Z,2.60
2022-09-06T06:02:41.212Z,2.10
2022-09-06T06:07:48.824Z,3.10
2022-09-06T06:12:55.025Z,2.60
2022-09-06T06:18:18.822Z,2.20
2022-09-06T06:23:22.239Z,2.40
2022-09-06T06:28:26.105Z,2.30
2022-09-06T06:33:29.388Z,2.20
2022-09-06T06:38:33.810Z,2.60
2022-09-06T06:43:37.962Z,2.40
2022-09-06T06:48:43.471Z,2.60
2022-09-06T06:53:47.706Z,2.20
2022-09-06T06:58:53.335Z,2.60
2022-09-06T07:03:57.295Z,2.30
2022-09-06T07:09:01.069Z,3.40
2022-09-06T07:14:03.954Z,3.10
2022-09-06T07:24:33.428Z,2.20
2022-09-06T07:29:36.431Z,2.30
2022-09-06T07:34:40.546Z,1.80
2022-09-06T07:39:43.801Z,2.10
2022-09-06T07:44:46.639Z,2.00
2022-09-06T07:55:13.198Z,1.40
2022-09-06T08:00:16.271Z,1.70
2022-09-06T08:10:42.498Z,1.40
2022-09-06T08:15:45.491Z,1.30
2022-09-06T08:20:48.287Z,1.20
2022-09-06T08:25:58.684Z,1.40
2022-09-06T08:31:17.692Z,1.30
2022-09-06T08:36:21.688Z,1.40
2022-09-06T08:41:37.148Z,1.30
2022-09-06T08:46:49.741Z,1.10
2022-09-06T08:52:15.488Z,1.10
2022-09-06T08:57:42.692Z,1.20
2022-09-06T09:02:49.476Z,1.10
2022-09-06T09:08:00.356Z,1.10
2022-09-06T09:13:07.794Z,1.30
2022-09-06T09:18:11.134Z,1.50
2022-09-06T09:23:14.170Z,1.20
2022-09-06T09:28:20.111Z,1.00
2022-09-06T09:33:28.511Z,1.00
2022-09-06T09:38:38.171Z,1.20
2022-09-06T09:43:42.668Z,1.30
2022-09-06T09:49:04.740Z,1.20
2022-09-06T09:54:10.762Z,1.00
2022-09-06T09:59:27.197Z,1.00
2022-09-06T10:10:07.671Z,1.00
2022-09-06T10:15:13.018Z,1.10
2022-09-06T10:20:16.593Z,0.90
2022-09-06T10:25:34.583Z,1.00
2022-09-06T10:30:45.834Z,1.20
2022-09-06T10:35:48.835Z,0.90
2022-09-06T10:41:01.398Z,1.00
2022-09-06T10:46:15.011Z,0.80
2022-09-06T10:51:42.097Z,0.80
2022-09-06T10:56:56.838Z,0.70
2022-09-06T11:02:24.555Z,0.80
2022-09-06T11:07:30.454Z,1.00
2022-09-06T11:12:45.528Z,1.30
2022-09-06T11:18:04.492Z,0.90
2022-09-06T11:23:32.018Z,0.70
2022-09-06T11:28:44.813Z,0.90
2022-09-06T11:33:49.501Z,0.70
2022-09-06T11:39:02.045Z,0.70
2022-09-06T11:44:06.293Z,0.70
2022-09-06T11:49:35.764Z,0.80
2022-09-06T11:54:44.332Z,1.00
2022-09-06T11:59:47.894Z,0.80
2022-09-06T12:05:00.416Z,0.90
2022-09-06T12:10:31.571Z,0.90
2022-09-06T12:15:52.313Z,0.70
2022-09-06T12:20:56.759Z,0.80
2022-09-06T12:25:59.726Z,0.80
2022-09-06T12:31:25.277Z,0.80
2022-09-06T12:36:32.069Z,0.80
2022-09-06T12:41:44.778Z,0.40
2022-09-06T12:46:51.870Z,0.60
2022-09-06T12:52:10.862Z,1.10
2022-09-06T12:57:24.562Z,0.80
2022-09-06T13:02:41.382Z,1.00
2022-09-06T13:07:51.166Z,0.80
2022-09-06T13:12:57.501Z,0.60
2022-09-06T13:18:27.245Z,0.90
2022-09-06T13:23:40.135Z,0.70
2022-09-06T13:28:42.968Z,0.70
2022-09-06T13:34:00.363Z,1.20
2022-09-06T13:39:04.550Z,0.80
2022-09-06T13:44:08.162Z,1.00
2022-09-06T13:49:11.018Z,0.80
2022-09-06T13:54:14.761Z,0.80
2022-09-06T13:59:18.289Z,0.70
2022-09-06T14:04:21.695Z,0.90
2022-09-06T14:09:24.835Z,0.70
2022-09-06T14:14:27.710Z,0.90
2022-09-06T14:19:30.653Z,0.70
2022-09-06T14:24:33.530Z,0.80
2022-09-06T14:29:37.259Z,0.70
2022-09-06T14:34:40.068Z,0.80
2022-09-06T14:39:43.226Z,1.20
2022-09-06T14:44:46.082Z,1.10
2022-09-06T14:49:48.894Z,1.20
2022-09-06T14:54:51.726Z,0.70
2022-09-06T14:59:54.809Z,0.80
2022-09-06T15:04:57.643Z,1.00
2022-09-06T15:10:00.653Z,0.90
2022-09-06T15:15:04.155Z,1.00
2022-09-06T15:20:07.317Z,0.90
2022-09-06T15:25:10.197Z,1.00
2022-09-06T15:30:13.124Z,0.80
2022-09-06T15:35:16.486Z,0.70
2022-09-06T15:40:22.144Z,1.20
2022-09-06T15:45:24.953Z,0.90
2022-09-06T15:50:49.759Z,0.90
2022-09-06T15:55:58.723Z,0.90
2022-09-06T16:01:01.744Z,0.90
2022-09-06T16:06:26.108Z,0.90
2022-09-06T16:11:32.816Z,0.80
2022-09-06T16:16:36.651Z,1.00
2022-09-06T16:21:41.783Z,1.20
2022-09-06T16:26:48.742Z,1.00
2022-09-06T16:31:56.802Z,1.00
2022-09-06T16:37:00.436Z,1.00
2022-09-06T16:42:03.427Z,1.50
2022-09-06T16:47:07.085Z,1.30
2022-09-06T16:52:09.966Z,1.50
2022-09-06T16:57:13.323Z,1.50
2022-09-06T17:02:16.588Z,1.70
2022-09-06T17:07:20.071Z,1.80
2022-09-06T17:12:24.319Z,1.70
2022-09-06T17:17:28.029Z,1.70
2022-09-06T17:22:32.240Z,2.00
2022-09-06T17:27:35.464Z,2.60
2022-09-06T17:32:38.582Z,2.90
2022-09-06T17:37:41.343Z,2.40
2022-09-06T17:42:44.245Z,2.10
2022-09-06T17:47:47.073Z,2.40
2022-09-06T17:52:51.835Z,2.10
2022-09-06T17:57:56.112Z,2.70
2022-09-06T18:03:01.692Z,3.00
2022-09-06T18:08:04.928Z,3.00
2022-09-06T18:13:08.065Z,2.80
2022-09-06T18:18:13.028Z,2.80
2022-09-06T18:23:16.064Z,2.70
2022-09-06T18:28:18.829Z,2.30
2022-09-06T18:33:24.730Z,2.80
2022-09-06T18:38:28.235Z,3.20
2022-09-06T18:43:33.667Z,2.40
2022-09-06T18:48:39.195Z,2.30
2022-09-06T18:53:44.796Z,2.20
2022-09-06T18:58:48.122Z,1.90
2022-09-06T19:03:50.994Z,2.40
2022-09-06T19:08:55.287Z,2.00
2022-09-06T19:13:58.729Z,2.20
2022-09-06T19:19:07.374Z,2.10
2022-09-06T19:24:12.196Z,2.30
2022-09-06T19:29:17.704Z,2.40
2022-09-06T19:34:20.795Z,2.90
2022-09-06T19:39:23.630Z,2.60
2022-09-06T19:44:29.028Z,2.70
2022-09-06T19:49:31.936Z,2.90
2022-09-06T19:54:37.442Z,3.40
2022-09-06T19:59:40.521Z,2.50
2022-09-06T20:04:43.247Z,3.10
2022-09-06T20:09:48.493Z,2.40
2022-09-06T20:14:54.692Z,2.50
2022-09-06T20:19:57.465Z,1.90
2022-09-06T20:25:02.010Z,1.90
2022-09-06T20:30:05.852Z,2.30
2022-09-06T20:35:09.194Z,1.90
2022-09-06T20:40:13.193Z,2.30
2022-09-06T20:45:19.398Z,2.60
2022-09-06T20:50:23.190Z,3.20
2022-09-06T20:55:26.150Z,2.00
2022-09-06T21:00:28.996Z,2.20
2022-09-06T21:05:31.874Z,2.50
2022-09-06T21:10:35.778Z,2.10
2022-09-06T21:15:43.327Z,2.80
2022-09-06T21:20:57.077Z,2.30
2022-09-06T21:26:03.297Z,2.40
2022-09-06T21:31:22.344Z,2.10
2022-09-06T21:36:30.033Z,2.30
2022-09-06T21:41:36.443Z,1.90
2022-09-06T21:46:40.448Z,2.40
2022-09-06T21:51:43.679Z,2.20
2022-09-06T21:56:46.924Z,2.20
2022-09-06T22:01:52.876Z,2.50
2022-09-06T22:06:55.901Z,2.50
2022-09-06T22:11:58.896Z,2.30
2022-09-06T22:17:01.835Z,2.50
2022-09-06T22:22:04.659Z,2.50
2022-09-06T22:27:07.663Z,2.70
2022-09-06T22:32:10.766Z,2.20
2022-09-06T22:37:13.671Z,2.50
2022-09-06T22:42:17.017Z,2.50
2022-09-06T22:47:20.157Z,2.50
2022-09-06T22:52:22.922Z,2.60
2022-09-06T22:57:27.290Z,2.60
2022-09-06T23:02:29.996Z,2.30
2022-09-06T23:07:33.166Z,2.40
2022-09-06T23:12:36.018Z,2.40
2022-09-06T23:17:38.793Z,2.50
2022-09-06T23:22:41.989Z,2.80
2022-09-06T23:27:44.697Z,2.60
2022-09-06T23:32:47.555Z,2.50
2022-09-06T23:37:51.545Z,2.50
2022-09-06T23:42:54.286Z,2.80
2022-09-06T23:47:57.058Z,2.20
2022-09-06T23:52:59.883Z,2.10
2022-09-06T23:58:02.740Z,2.30
